sensor_id;sensor_type;location;lat;lon;timestamp;P1;durP1;ratioP1;P2;durP2;ratioP2
48789;SDS011;41718;51.980;5.734;2023-09-12T00:02:39;29.70;;;21.13;;
48789;SDS011;41718;51.980;5.734;2023-09-12T00:07:41;32.90;;;21.98;;
48789;SDS011;41718;51.980;5.734;2023-09-12T00:12:42;32.72;;;22.38;;
48789;SDS011;41718;51.980;5.734;2023-09-12T00:17:44;32.88;;;21.25;;
48789;SDS011;41718;51.980;5.734;2023-09-12T00:22:45;30.83;;;21.92;;
48789;SDS011;41718;51.980;5.734;2023-09-12T00:27:47;36.15;;;22.70;;
48789;SDS011;41718;51.980;5.734;2023-09-12T00:32:49;32.40;;;20.98;;
48789;SDS011;41718;51.980;5.734;2023-09-12T00:37:50;29.15;;;20.42;;
48789;SDS011;41718;51.980;5.734;2023-09-12T00:42:52;24.52;;;17.70;;
48789;SDS011;41718;51.980;5.734;2023-09-12T00:47:53;27.35;;;19.63;;
48789;SDS011;41718;51.980;5.734;2023-09-12T00:52:56;30.60;;;20.08;;
48789;SDS011;41718;51.980;5.734;2023-09-12T00:57:58;30.40;;;21.30;;
48789;SDS011;41718;51.980;5.734;2023-09-12T01:03:00;34.85;;;23.02;;
48789;SDS011;41718;51.980;5.734;2023-09-12T01:08:03;36.60;;;24.30;;
48789;SDS011;41718;51.980;5.734;2023-09-12T01:13:04;41.30;;;25.00;;
48789;SDS011;41718;51.980;5.734;2023-09-12T01:18:07;40.25;;;25.00;;
48789;SDS011;41718;51.980;5.734;2023-09-12T01:28:33;36.35;;;23.40;;
48789;SDS011;41718;51.980;5.734;2023-09-12T01:33:36;34.40;;;21.38;;
48789;SDS011;41718;51.980;5.734;2023-09-12T01:38:37;32.20;;;19.70;;
48789;SDS011;41718;51.980;5.734;2023-09-12T01:43:39;27.63;;;17.60;;
48789;SDS011;41718;51.980;5.734;2023-09-12T01:48:42;31.73;;;18.88;;
48789;SDS011;41718;51.980;5.734;2023-09-12T01:53:46;27.52;;;17.05;;
48789;SDS011;41718;51.980;5.734;2023-09-12T01:58:48;22.58;;;16.48;;
48789;SDS011;41718;51.980;5.734;2023-09-12T02:03:50;24.95;;;16.65;;
48789;SDS011;41718;51.980;5.734;2023-09-12T02:08:52;25.58;;;17.80;;
48789;SDS011;41718;51.980;5.734;2023-09-12T02:13:53;23.50;;;17.10;;
48789;SDS011;41718;51.980;5.734;2023-09-12T02:18:55;21.20;;;15.20;;
48789;SDS011;41718;51.980;5.734;2023-09-12T02:23:57;20.33;;;14.45;;
48789;SDS011;41718;51.980;5.734;2023-09-12T02:28:58;22.60;;;15.70;;
48789;SDS011;41718;51.980;5.734;2023-09-12T02:34:00;21.15;;;13.52;;
48789;SDS011;41718;51.980;5.734;2023-09-12T02:39:01;20.67;;;15.43;;
48789;SDS011;41718;51.980;5.734;2023-09-12T02:44:05;21.55;;;15.23;;
48789;SDS011;41718;51.980;5.734;2023-09-12T02:49:07;15.38;;;10.63;;
48789;SDS011;41718;51.980;5.734;2023-09-12T02:54:08;14.98;;;10.85;;
48789;SDS011;41718;51.980;5.734;2023-09-12T02:59:10;16.88;;;12.77;;
48789;SDS011;41718;51.980;5.734;2023-09-12T03:04:11;15.10;;;11.25;;
48789;SDS011;41718;51.980;5.734;2023-09-12T03:09:13;15.70;;;11.45;;
48789;SDS011;41718;51.980;5.734;2023-09-12T03:14:15;15.50;;;11.68;;
48789;SDS011;41718;51.980;5.734;2023-09-12T03:19:17;17.52;;;12.43;;
48789;SDS011;41718;51.980;5.734;2023-09-12T03:24:18;13.75;;;11.43;;
48789;SDS011;41718;51.980;5.734;2023-09-12T03:29:22;11.70;;;9.02;;
48789;SDS011;41718;51.980;5.734;2023-09-12T03:34:24;10.52;;;9.02;;
48789;SDS011;41718;51.980;5.734;2023-09-12T03:39:25;17.02;;;12.15;;
48789;SDS011;41718;51.980;5.734;2023-09-12T03:44:27;14.82;;;11.48;;
48789;SDS011;41718;51.980;5.734;2023-09-12T03:49:29;11.65;;;9.05;;
48789;SDS011;41718;51.980;5.734;2023-09-12T03:54:30;14.63;;;10.27;;
48789;SDS011;41718;51.980;5.734;2023-09-12T03:59:32;15.15;;;11.38;;
48789;SDS011;41718;51.980;5.734;2023-09-12T04:04:34;14.60;;;11.25;;
48789;SDS011;41718;51.980;5.734;2023-09-12T04:09:36;17.60;;;12.50;;
48789;SDS011;41718;51.980;5.734;2023-09-12T04:14:37;14.48;;;10.95;;
48789;SDS011;41718;51.980;5.734;2023-09-12T04:19:39;16.17;;;10.52;;
48789;SDS011;41718;51.980;5.734;2023-09-12T04:24:40;14.27;;;9.82;;
48789;SDS011;41718;51.980;5.734;2023-09-12T04:29:42;11.85;;;8.77;;
48789;SDS011;41718;51.980;5.734;2023-09-12T04:34:44;11.20;;;8.48;;
48789;SDS011;41718;51.980;5.734;2023-09-12T04:39:45;10.70;;;8.30;;
48789;SDS011;41718;51.980;5.734;2023-09-12T04:44:47;10.07;;;8.70;;
48789;SDS011;41718;51.980;5.734;2023-09-12T04:49:50;11.20;;;9.30;;
48789;SDS011;41718;51.980;5.734;2023-09-12T04:54:51;13.65;;;8.90;;
48789;SDS011;41718;51.980;5.734;2023-09-12T04:59:53;14.48;;;10.02;;
48789;SDS011;41718;51.980;5.734;2023-09-12T05:04:54;16.83;;;11.27;;
48789;SDS011;41718;51.980;5.734;2023-09-12T05:09:56;18.00;;;12.35;;
48789;SDS011;41718;51.980;5.734;2023-09-12T05:14:58;16.23;;;10.15;;
48789;SDS011;41718;51.980;5.734;2023-09-12T05:19:59;15.57;;;10.15;;
48789;SDS011;41718;51.980;5.734;2023-09-12T05:25:01;14.45;;;10.32;;
48789;SDS011;41718;51.980;5.734;2023-09-12T05:30:03;14.68;;;11.35;;
48789;SDS011;41718;51.980;5.734;2023-09-12T05:35:05;19.55;;;12.38;;
48789;SDS011;41718;51.980;5.734;2023-09-12T05:40:21;17.52;;;11.88;;
48789;SDS011;41718;51.980;5.734;2023-09-12T05:45:23;18.52;;;12.15;;
48789;SDS011;41718;51.980;5.734;2023-09-12T05:50:25;25.98;;;14.43;;
48789;SDS011;41718;51.980;5.734;2023-09-12T05:55:26;24.52;;;13.65;;
48789;SDS011;41718;51.980;5.734;2023-09-12T06:00:28;40.17;;;22.85;;
48789;SDS011;41718;51.980;5.734;2023-09-12T06:05:29;61.03;;;32.15;;
48789;SDS011;41718;51.980;5.734;2023-09-12T06:10:31;66.13;;;33.72;;
48789;SDS011;41718;51.980;5.734;2023-09-12T06:15:33;67.93;;;34.47;;
48789;SDS011;41718;51.980;5.734;2023-09-12T06:20:35;73.85;;;36.85;;
48789;SDS011;41718;51.980;5.734;2023-09-12T06:25:36;57.20;;;29.85;;
48789;SDS011;41718;51.980;5.734;2023-09-12T06:30:38;76.25;;;37.30;;
48789;SDS011;41718;51.980;5.734;2023-09-12T06:35:40;87.20;;;39.03;;
48789;SDS011;41718;51.980;5.734;2023-09-12T06:40:43;73.45;;;38.88;;
48789;SDS011;41718;51.980;5.734;2023-09-12T06:45:44;78.53;;;40.45;;
48789;SDS011;41718;51.980;5.734;2023-09-12T06:50:47;92.25;;;42.75;;
48789;SDS011;41718;51.980;5.734;2023-09-12T06:55:53;93.07;;;43.83;;
48789;SDS011;41718;51.980;5.734;2023-09-12T07:00:55;86.22;;;41.90;;
48789;SDS011;41718;51.980;5.734;2023-09-12T07:05:57;80.05;;;40.05;;
48789;SDS011;41718;51.980;5.734;2023-09-12T07:10:59;62.35;;;34.80;;
48789;SDS011;41718;51.980;5.734;2023-09-12T07:16:07;80.07;;;40.78;;
48789;SDS011;41718;51.980;5.734;2023-09-12T07:21:08;82.18;;;42.30;;
48789;SDS011;41718;51.980;5.734;2023-09-12T07:26:13;83.03;;;42.38;;
48789;SDS011;41718;51.980;5.734;2023-09-12T07:31:15;84.40;;;43.22;;
48789;SDS011;41718;51.980;5.734;2023-09-12T07:36:17;86.57;;;43.97;;
48789;SDS011;41718;51.980;5.734;2023-09-12T07:41:18;86.13;;;44.97;;
48789;SDS011;41718;51.980;5.734;2023-09-12T07:46:20;88.90;;;43.40;;
48789;SDS011;41718;51.980;5.734;2023-09-12T07:51:22;92.15;;;45.20;;
48789;SDS011;41718;51.980;5.734;2023-09-12T07:56:24;89.18;;;44.40;;
48789;SDS011;41718;51.980;5.734;2023-09-12T08:01:25;74.72;;;40.00;;
48789;SDS011;41718;51.980;5.734;2023-09-12T08:06:28;78.07;;;40.15;;
48789;SDS011;41718;51.980;5.734;2023-09-12T08:11:44;78.30;;;42.45;;
48789;SDS011;41718;51.980;5.734;2023-09-12T08:16:48;64.65;;;35.35;;
48789;SDS011;41718;51.980;5.734;2023-09-12T08:21:50;58.75;;;34.67;;
48789;SDS011;41718;51.980;5.734;2023-09-12T08:26:52;55.85;;;32.65;;
48789;SDS011;41718;51.980;5.734;2023-09-12T08:31:54;56.42;;;31.25;;
48789;SDS011;41718;51.980;5.734;2023-09-12T08:36:56;46.22;;;28.75;;
48789;SDS011;41718;51.980;5.734;2023-09-12T08:41:57;39.20;;;23.27;;
48789;SDS011;41718;51.980;5.734;2023-09-12T08:47:01;44.63;;;26.75;;
48789;SDS011;41718;51.980;5.734;2023-09-12T08:52:04;39.60;;;24.75;;
48789;SDS011;41718;51.980;5.734;2023-09-12T08:57:06;39.60;;;23.17;;
48789;SDS011;41718;51.980;5.734;2023-09-12T09:02:09;33.65;;;23.15;;
48789;SDS011;41718;51.980;5.734;2023-09-12T09:07:12;35.30;;;25.05;;
48789;SDS011;41718;51.980;5.734;2023-09-12T09:12:15;40.90;;;23.65;;
48789;SDS011;41718;51.980;5.734;2023-09-12T09:17:16;31.75;;;20.45;;
48789;SDS011;41718;51.980;5.734;2023-09-12T09:22:35;38.35;;;21.52;;
48789;SDS011;41718;51.980;5.734;2023-09-12T09:27:37;32.53;;;19.17;;
48789;SDS011;41718;51.980;5.734;2023-09-12T09:32:38;27.88;;;18.50;;
48789;SDS011;41718;51.980;5.734;2023-09-12T09:37:41;22.70;;;16.13;;
48789;SDS011;41718;51.980;5.734;2023-09-12T09:42:43;23.35;;;16.77;;
48789;SDS011;41718;51.980;5.734;2023-09-12T09:47:45;25.52;;;17.65;;
48789;SDS011;41718;51.980;5.734;2023-09-12T09:52:46;24.15;;;15.57;;
48789;SDS011;41718;51.980;5.734;2023-09-12T09:57:55;25.85;;;16.42;;
48789;SDS011;41718;51.980;5.734;2023-09-12T10:02:57;23.25;;;14.88;;
48789;SDS011;41718;51.980;5.734;2023-09-12T10:08:00;20.92;;;14.30;;
48789;SDS011;41718;51.980;5.734;2023-09-12T10:13:04;16.38;;;12.40;;
48789;SDS011;41718;51.980;5.734;2023-09-12T10:18:09;21.95;;;13.23;;
48789;SDS011;41718;51.980;5.734;2023-09-12T10:23:39;18.38;;;11.27;;
48789;SDS011;41718;51.980;5.734;2023-09-12T10:28:45;13.48;;;9.13;;
48789;SDS011;41718;51.980;5.734;2023-09-12T10:33:48;14.88;;;9.25;;
48789;SDS011;41718;51.980;5.734;2023-09-12T10:38:51;18.98;;;12.10;;
48789;SDS011;41718;51.980;5.734;2023-09-12T10:43:53;16.95;;;11.57;;
48789;SDS011;41718;51.980;5.734;2023-09-12T10:48:58;16.35;;;10.30;;
48789;SDS011;41718;51.980;5.734;2023-09-12T10:54:00;19.20;;;12.55;;
48789;SDS011;41718;51.980;5.734;2023-09-12T11:09:22;18.63;;;12.03;;
48789;SDS011;41718;51.980;5.734;2023-09-12T11:14:27;17.98;;;11.60;;
48789;SDS011;41718;51.980;5.734;2023-09-12T11:19:28;20.52;;;15.10;;
48789;SDS011;41718;51.980;5.734;2023-09-12T11:24:30;19.90;;;14.32;;
48789;SDS011;41718;51.980;5.734;2023-09-12T11:29:45;23.52;;;14.65;;
48789;SDS011;41718;51.980;5.734;2023-09-12T11:34:48;22.90;;;13.25;;
48789;SDS011;41718;51.980;5.734;2023-09-12T11:39:50;19.17;;;12.30;;
48789;SDS011;41718;51.980;5.734;2023-09-12T11:44:53;15.25;;;11.18;;
48789;SDS011;41718;51.980;5.734;2023-09-12T11:49:55;18.33;;;11.60;;
48789;SDS011;41718;51.980;5.734;2023-09-12T11:54:57;17.88;;;13.57;;
48789;SDS011;41718;51.980;5.734;2023-09-12T11:59:59;19.23;;;13.80;;
48789;SDS011;41718;51.980;5.734;2023-09-12T12:05:10;16.10;;;11.85;;
48789;SDS011;41718;51.980;5.734;2023-09-12T12:10:12;16.25;;;11.20;;
48789;SDS011;41718;51.980;5.734;2023-09-12T12:15:14;13.88;;;8.93;;
48789;SDS011;41718;51.980;5.734;2023-09-12T12:20:16;12.73;;;9.18;;
48789;SDS011;41718;51.980;5.734;2023-09-12T12:25:17;15.55;;;10.85;;
48789;SDS011;41718;51.980;5.734;2023-09-12T12:30:19;12.07;;;9.40;;
48789;SDS011;41718;51.980;5.734;2023-09-12T12:35:22;12.98;;;8.38;;
48789;SDS011;41718;51.980;5.734;2023-09-12T12:40:44;9.35;;;7.05;;
48789;SDS011;41718;51.980;5.734;2023-09-12T12:45:53;10.13;;;6.13;;
48789;SDS011;41718;51.980;5.734;2023-09-12T12:50:56;12.35;;;8.80;;
48789;SDS011;41718;51.980;5.734;2023-09-12T12:55:59;8.23;;;6.15;;
48789;SDS011;41718;51.980;5.734;2023-09-12T13:01:01;14.93;;;8.73;;
48789;SDS011;41718;51.980;5.734;2023-09-12T13:06:03;11.63;;;7.93;;
48789;SDS011;41718;51.980;5.734;2023-09-12T13:11:04;9.32;;;7.63;;
48789;SDS011;41718;51.980;5.734;2023-09-12T13:16:08;10.07;;;8.07;;
48789;SDS011;41718;51.980;5.734;2023-09-12T13:21:11;13.93;;;8.63;;
48789;SDS011;41718;51.980;5.734;2023-09-12T13:26:12;9.88;;;7.57;;
48789;SDS011;41718;51.980;5.734;2023-09-12T13:31:14;9.20;;;6.75;;
48789;SDS011;41718;51.980;5.734;2023-09-12T13:36:16;6.80;;;5.78;;
48789;SDS011;41718;51.980;5.734;2023-09-12T13:41:17;10.30;;;6.05;;
48789;SDS011;41718;51.980;5.734;2023-09-12T13:46:19;7.55;;;3.88;;
48789;SDS011;41718;51.980;5.734;2023-09-12T13:51:21;7.10;;;4.28;;
48789;SDS011;41718;51.980;5.734;2023-09-12T13:56:23;5.45;;;3.30;;
48789;SDS011;41718;51.980;5.734;2023-09-12T14:01:25;7.35;;;4.55;;
48789;SDS011;41718;51.980;5.734;2023-09-12T14:06:35;5.30;;;3.60;;
48789;SDS011;41718;51.980;5.734;2023-09-12T14:11:37;9.95;;;3.90;;
48789;SDS011;41718;51.980;5.734;2023-09-12T14:16:39;9.13;;;4.80;;
48789;SDS011;41718;51.980;5.734;2023-09-12T14:26:50;9.55;;;5.57;;
48789;SDS011;41718;51.980;5.734;2023-09-12T14:31:53;7.35;;;4.82;;
48789;SDS011;41718;51.980;5.734;2023-09-12T14:36:59;4.85;;;3.35;;
48789;SDS011;41718;51.980;5.734;2023-09-12T14:42:00;6.85;;;3.38;;
48789;SDS011;41718;51.980;5.734;2023-09-12T14:47:06;8.07;;;5.25;;
48789;SDS011;41718;51.980;5.734;2023-09-12T14:52:08;5.15;;;3.92;;
48789;SDS011;41718;51.980;5.734;2023-09-12T14:57:22;8.53;;;4.63;;
48789;SDS011;41718;51.980;5.734;2023-09-12T15:02:25;6.97;;;3.95;;
48789;SDS011;41718;51.980;5.734;2023-09-12T15:07:32;4.13;;;3.67;;
48789;SDS011;41718;51.980;5.734;2023-09-12T15:12:35;5.43;;;3.78;;
48789;SDS011;41718;51.980;5.734;2023-09-12T15:17:37;5.30;;;3.50;;
48789;SDS011;41718;51.980;5.734;2023-09-12T15:22:39;6.72;;;3.70;;
48789;SDS011;41718;51.980;5.734;2023-09-12T15:27:40;4.93;;;4.15;;
48789;SDS011;41718;51.980;5.734;2023-09-12T15:32:43;5.63;;;3.67;;
48789;SDS011;41718;51.980;5.734;2023-09-12T15:37:45;4.90;;;3.85;;
48789;SDS011;41718;51.980;5.734;2023-09-12T15:42:47;7.00;;;4.85;;
48789;SDS011;41718;51.980;5.734;2023-09-12T15:47:51;7.55;;;4.63;;
48789;SDS011;41718;51.980;5.734;2023-09-12T15:52:53;5.90;;;4.03;;
48789;SDS011;41718;51.980;5.734;2023-09-12T15:57:55;7.07;;;4.80;;
48789;SDS011;41718;51.980;5.734;2023-09-12T16:02:56;9.45;;;5.57;;
48789;SDS011;41718;51.980;5.734;2023-09-12T16:07:58;9.55;;;6.72;;
48789;SDS011;41718;51.980;5.734;2023-09-12T16:13:00;6.88;;;5.72;;
48789;SDS011;41718;51.980;5.734;2023-09-12T16:18:02;7.35;;;5.63;;
48789;SDS011;41718;51.980;5.734;2023-09-12T16:23:04;9.85;;;6.10;;
48789;SDS011;41718;51.980;5.734;2023-09-12T16:28:05;12.23;;;6.72;;
48789;SDS011;41718;51.980;5.734;2023-09-12T16:33:07;8.48;;;6.07;;
48789;SDS011;41718;51.980;5.734;2023-09-12T16:38:09;9.30;;;5.60;;
48789;SDS011;41718;51.980;5.734;2023-09-12T16:43:10;8.70;;;5.72;;
48789;SDS011;41718;51.980;5.734;2023-09-12T16:48:12;8.48;;;5.53;;
48789;SDS011;41718;51.980;5.734;2023-09-12T16:53:13;7.85;;;5.38;;
48789;SDS011;41718;51.980;5.734;2023-09-12T16:58:16;11.55;;;6.70;;
48789;SDS011;41718;51.980;5.734;2023-09-12T17:03:18;7.68;;;5.57;;
48789;SDS011;41718;51.980;5.734;2023-09-12T17:08:19;7.00;;;4.95;;
48789;SDS011;41718;51.980;5.734;2023-09-12T17:13:21;8.32;;;6.32;;
48789;SDS011;41718;51.980;5.734;2023-09-12T17:18:23;8.57;;;5.82;;
48789;SDS011;41718;51.980;5.734;2023-09-12T17:23:25;10.18;;;5.05;;
48789;SDS011;41718;51.980;5.734;2023-09-12T17:28:26;6.30;;;4.80;;
48789;SDS011;41718;51.980;5.734;2023-09-12T17:33:28;5.10;;;3.70;;
48789;SDS011;41718;51.980;5.734;2023-09-12T17:38:32;5.35;;;4.38;;
48789;SDS011;41718;51.980;5.734;2023-09-12T17:43:35;5.75;;;4.63;;
48789;SDS011;41718;51.980;5.734;2023-09-12T17:48:38;5.22;;;3.92;;
48789;SDS011;41718;51.980;5.734;2023-09-12T17:53:43;5.07;;;3.67;;
48789;SDS011;41718;51.980;5.734;2023-09-12T17:58:47;5.68;;;4.15;;
48789;SDS011;41718;51.980;5.734;2023-09-12T18:03:49;4.78;;;3.70;;
48789;SDS011;41718;51.980;5.734;2023-09-12T18:08:51;5.75;;;4.60;;
48789;SDS011;41718;51.980;5.734;2023-09-12T18:13:54;7.15;;;4.93;;
48789;SDS011;41718;51.980;5.734;2023-09-12T18:18:56;8.60;;;5.18;;
48789;SDS011;41718;51.980;5.734;2023-09-12T18:23:57;8.55;;;4.97;;
48789;SDS011;41718;51.980;5.734;2023-09-12T18:29:01;6.97;;;5.53;;
48789;SDS011;41718;51.980;5.734;2023-09-12T18:34:03;7.72;;;5.82;;
48789;SDS011;41718;51.980;5.734;2023-09-12T18:39:05;8.25;;;6.32;;
48789;SDS011;41718;51.980;5.734;2023-09-12T18:44:08;9.50;;;6.32;;
48789;SDS011;41718;51.980;5.734;2023-09-12T18:49:17;9.77;;;6.80;;
48789;SDS011;41718;51.980;5.734;2023-09-12T18:54:45;8.63;;;6.35;;
48789;SDS011;41718;51.980;5.734;2023-09-12T19:00:10;11.10;;;7.10;;
48789;SDS011;41718;51.980;5.734;2023-09-12T19:05:28;12.50;;;7.43;;
48789;SDS011;41718;51.980;5.734;2023-09-12T19:10:41;10.18;;;7.60;;
48789;SDS011;41718;51.980;5.734;2023-09-12T19:21:09;14.50;;;10.30;;
48789;SDS011;41718;51.980;5.734;2023-09-12T19:26:15;12.98;;;9.18;;
48789;SDS011;41718;51.980;5.734;2023-09-12T19:31:26;12.40;;;8.82;;
48789;SDS011;41718;51.980;5.734;2023-09-12T19:36:30;12.27;;;9.02;;
48789;SDS011;41718;51.980;5.734;2023-09-12T19:41:35;15.63;;;10.05;;
48789;SDS011;41718;51.980;5.734;2023-09-12T19:46:37;14.40;;;9.43;;
48789;SDS011;41718;51.980;5.734;2023-09-12T19:52:04;12.20;;;8.95;;
48789;SDS011;41718;51.980;5.734;2023-09-12T19:57:34;13.07;;;9.02;;
48789;SDS011;41718;51.980;5.734;2023-09-12T20:03:11;15.75;;;9.05;;
48789;SDS011;41718;51.980;5.734;2023-09-12T20:08:18;12.55;;;9.43;;
48789;SDS011;41718;51.980;5.734;2023-09-12T20:13:19;17.98;;;9.65;;
48789;SDS011;41718;51.980;5.734;2023-09-12T20:18:21;14.40;;;10.40;;
48789;SDS011;41718;51.980;5.734;2023-09-12T20:23:23;15.25;;;10.00;;
48789;SDS011;41718;51.980;5.734;2023-09-12T20:28:27;12.70;;;9.32;;
48789;SDS011;41718;51.980;5.734;2023-09-12T20:33:28;14.45;;;9.38;;
48789;SDS011;41718;51.980;5.734;2023-09-12T20:38:30;11.05;;;7.43;;
48789;SDS011;41718;51.980;5.734;2023-09-12T20:43:34;9.80;;;8.50;;
48789;SDS011;41718;51.980;5.734;2023-09-12T20:48:36;10.63;;;7.80;;
48789;SDS011;41718;51.980;5.734;2023-09-12T20:53:48;13.77;;;9.75;;
48789;SDS011;41718;51.980;5.734;2023-09-12T20:58:52;13.77;;;10.38;;
48789;SDS011;41718;51.980;5.734;2023-09-12T21:03:53;11.27;;;9.23;;
48789;SDS011;41718;51.980;5.734;2023-09-12T21:08:55;14.77;;;10.60;;
48789;SDS011;41718;51.980;5.734;2023-09-12T21:13:57;12.40;;;8.82;;
48789;SDS011;41718;51.980;5.734;2023-09-12T21:18:59;12.07;;;8.77;;
48789;SDS011;41718;51.980;5.734;2023-09-12T21:24:01;13.52;;;10.15;;
48789;SDS011;41718;51.980;5.734;2023-09-12T21:29:07;12.70;;;9.38;;
48789;SDS011;41718;51.980;5.734;2023-09-12T21:34:12;16.27;;;10.20;;
48789;SDS011;41718;51.980;5.734;2023-09-12T21:39:14;13.93;;;9.70;;
48789;SDS011;41718;51.980;5.734;2023-09-12T21:44:16;14.90;;;10.73;;
48789;SDS011;41718;51.980;5.734;2023-09-12T21:49:22;16.45;;;11.02;;
48789;SDS011;41718;51.980;5.734;2023-09-12T21:54:26;14.18;;;10.68;;
48789;SDS011;41718;51.980;5.734;2023-09-12T21:59:29;14.30;;;11.25;;
48789;SDS011;41718;51.980;5.734;2023-09-12T22:04:31;17.38;;;10.93;;
48789;SDS011;41718;51.980;5.734;2023-09-12T22:09:33;15.57;;;11.43;;
48789;SDS011;41718;51.980;5.734;2023-09-12T22:14:35;14.57;;;10.85;;
48789;SDS011;41718;51.980;5.734;2023-09-12T22:19:37;13.20;;;9.95;;
48789;SDS011;41718;51.980;5.734;2023-09-12T22:24:39;14.73;;;10.07;;
48789;SDS011;41718;51.980;5.734;2023-09-12T22:29:41;13.52;;;10.35;;
48789;SDS011;41718;51.980;5.734;2023-09-12T22:34:47;12.40;;;8.90;;
48789;SDS011;41718;51.980;5.734;2023-09-12T22:39:52;13.10;;;10.30;;
48789;SDS011;41718;51.980;5.734;2023-09-12T22:44:57;16.10;;;10.07;;
48789;SDS011;41718;51.980;5.734;2023-09-12T22:50:08;15.15;;;10.70;;
48789;SDS011;41718;51.980;5.734;2023-09-12T22:55:12;14.20;;;10.45;;
48789;SDS011;41718;51.980;5.734;2023-09-12T23:00:14;13.88;;;10.15;;
48789;SDS011;41718;51.980;5.734;2023-09-12T23:05:29;15.93;;;11.18;;
48789;SDS011;41718;51.980;5.734;2023-09-12T23:10:31;14.55;;;10.73;;
48789;SDS011;41718;51.980;5.734;2023-09-12T23:15:35;15.55;;;11.75;;
48789;SDS011;41718;51.980;5.734;2023-09-12T23:20:37;14.85;;;11.52;;
48789;SDS011;41718;51.980;5.734;2023-09-12T23:25:41;13.93;;;11.45;;
48789;SDS011;41718;51.980;5.734;2023-09-12T23:30:44;15.30;;;11.60;;
48789;SDS011;41718;51.980;5.734;2023-09-12T23:35:47;19.40;;;12.48;;
48789;SDS011;41718;51.980;5.734;2023-09-12T23:40:49;16.05;;;11.63;;
48789;SDS011;41718;51.980;5.734;2023-09-12T23:45:51;16.15;;;11.45;;
48789;SDS011;41718;51.980;5.734;2023-09-12T23:50:53;14.18;;;10.85;;
48789;SDS011;41718;51.980;5.734;2023-09-12T23:55:58;14.25;;;10.75;;
